createdAt,value
2018-06-22T00:00:04.530Z,1016.55
2018-06-22T00:01:04.500Z,1016.45
2018-06-22T00:02:04.581Z,1016.47
2018-06-22T00:03:04.464Z,1016.48
2018-06-22T00:04:04.446Z,1016.45
2018-06-22T00:05:04.429Z,1016.42
2018-06-22T00:06:04.412Z,1016.44
2018-06-22T00:07:04.402Z,1016.39
2018-06-22T00:08:04.385Z,1016.43
2018-06-22T00:09:04.361Z,1016.44
2018-06-22T00:10:04.339Z,1016.42
2018-06-22T00:11:04.329Z,1016.44
2018-06-22T00:12:04.308Z,1016.41
2018-06-22T00:13:04.289Z,1016.40
2018-06-22T00:14:04.271Z,1016.37
2018-06-22T00:15:04.260Z,1016.39
2018-06-22T00:16:04.248Z,1016.37
2018-06-22T00:17:04.223Z,1016.39
2018-06-22T00:18:04.210Z,1016.39
2018-06-22T00:19:04.185Z,1016.40
2018-06-22T00:20:04.172Z,1016.34
2018-06-22T00:21:04.151Z,1016.28
2018-06-22T00:22:04.138Z,1016.29
2018-06-22T00:23:04.120Z,1016.29
2018-06-22T00:24:04.102Z,1016.26
2018-06-22T00:25:04.081Z,1016.29
2018-06-22T00:26:04.178Z,1016.22
2018-06-22T00:27:04.055Z,1016.18
2018-06-22T00:28:04.044Z,1016.15
2018-06-22T00:29:04.114Z,1016.17
2018-06-22T00:30:03.998Z,1016.11
2018-06-22T00:31:03.976Z,1016.11
2018-06-22T00:32:03.964Z,1016.17
2018-06-22T00:33:03.943Z,1016.12
2018-06-22T00:34:03.929Z,1016.16
2018-06-22T00:35:03.912Z,1016.10
2018-06-22T00:36:03.901Z,1016.17
2018-06-22T00:37:03.883Z,1016.14
2018-06-22T00:38:03.862Z,1016.16
2018-06-22T00:39:03.844Z,1016.18
2018-06-22T00:40:03.831Z,1016.13
2018-06-22T00:41:03.808Z,1016.13
2018-06-22T00:42:03.787Z,1016.10
2018-06-22T00:43:03.771Z,1016.13
2018-06-22T00:44:03.757Z,1016.11
2018-06-22T00:45:03.740Z,1016.11
2018-06-22T00:46:03.716Z,1016.05
2018-06-22T00:47:03.700Z,1016.06
2018-06-22T00:48:03.685Z,1016.04
2018-06-22T00:49:03.670Z,1016.01
2018-06-22T00:50:03.650Z,1016.07
2018-06-22T00:51:03.634Z,1016.06
2018-06-22T00:52:03.615Z,1016.02
2018-06-22T00:53:03.599Z,1016.00
2018-06-22T00:54:03.581Z,1016.02
2018-06-22T00:55:03.571Z,1016.05
2018-06-22T00:56:03.553Z,1016.04
2018-06-22T00:57:03.528Z,1016.01
2018-06-22T00:58:03.511Z,1016.00
2018-06-22T00:59:03.497Z,1016.02
2018-06-22T01:00:03.480Z,1015.99
2018-06-22T01:01:03.461Z,1016.01
2018-06-22T01:02:03.441Z,1015.97
2018-06-22T01:03:03.425Z,1016.01
2018-06-22T01:04:03.413Z,1015.98
2018-06-22T01:05:03.391Z,1015.94
2018-06-22T01:06:03.376Z,1015.94
2018-06-22T01:07:03.461Z,1015.91
2018-06-22T01:08:03.341Z,1015.92
2018-06-22T01:09:03.321Z,1015.92
2018-06-22T01:10:03.307Z,1015.90
2018-06-22T01:11:03.290Z,1015.92
2018-06-22T01:12:03.273Z,1015.90
2018-06-22T01:13:03.250Z,1015.88
2018-06-22T01:14:03.234Z,1015.84
2018-06-22T01:15:03.220Z,1015.80
2018-06-22T01:16:03.204Z,1015.78
2018-06-22T01:17:03.179Z,1015.83
2018-06-22T01:18:03.169Z,1015.81
2018-06-22T01:19:03.146Z,1015.84
2018-06-22T01:20:03.131Z,1015.82
2018-06-22T01:21:03.116Z,1015.83
2018-06-22T01:22:03.099Z,1015.85
2018-06-22T01:23:03.080Z,1015.86
2018-06-22T01:24:03.059Z,1015.86
2018-06-22T01:25:03.052Z,1015.89
2018-06-22T01:26:03.025Z,1015.89
2018-06-22T01:27:03.008Z,1015.84
2018-06-22T01:28:02.990Z,1015.86
2018-06-22T01:29:02.977Z,1015.82
2018-06-22T01:30:02.954Z,1015.73
2018-06-22T01:31:02.939Z,1015.75
2018-06-22T01:32:02.920Z,1015.73
2018-06-22T01:33:02.903Z,1015.79
2018-06-22T01:34:02.889Z,1015.81
2018-06-22T01:35:02.868Z,1015.75
2018-06-22T01:36:02.852Z,1015.74
2018-06-22T01:37:02.936Z,1015.73
2018-06-22T01:38:02.821Z,1015.74
2018-06-22T01:39:02.798Z,1015.71
2018-06-22T01:40:02.780Z,1015.69
2018-06-22T01:41:02.764Z,1015.78
2018-06-22T01:42:02.749Z,1015.73
2018-06-22T01:43:02.737Z,1015.74
2018-06-22T01:44:02.711Z,1015.68
2018-06-22T01:45:02.697Z,1015.68
2018-06-22T01:46:02.678Z,1015.69
2018-06-22T01:47:02.670Z,1015.66
2018-06-22T01:48:02.639Z,1015.68
2018-06-22T01:49:02.622Z,1015.68
2018-06-22T01:50:02.611Z,1015.65
2018-06-22T01:51:02.591Z,1015.60
2018-06-22T01:52:02.571Z,1015.60
2018-06-22T01:53:02.554Z,1015.58
2018-06-22T01:54:02.535Z,1015.61
2018-06-22T01:55:02.524Z,1015.59
2018-06-22T01:56:02.576Z,1015.57
2018-06-22T01:57:02.481Z,1015.53
2018-06-22T01:58:02.463Z,1015.63
2018-06-22T01:59:02.448Z,1015.61
2018-06-22T02:00:02.433Z,1015.59
2018-06-22T02:01:02.512Z,1015.69
2018-06-22T02:02:02.402Z,1015.64
2018-06-22T02:03:02.380Z,1015.63
2018-06-22T02:04:02.432Z,1015.57
2018-06-22T02:05:02.346Z,1015.58
2018-06-22T02:06:02.326Z,1015.58
2018-06-22T02:07:02.314Z,1015.59
2018-06-22T02:08:02.291Z,1015.57
2018-06-22T02:09:02.272Z,1015.65
2018-06-22T02:10:02.260Z,1015.64
2018-06-22T02:11:02.241Z,1015.69
2018-06-22T02:12:02.223Z,1015.57
2018-06-22T02:13:02.201Z,1015.62
2018-06-22T02:14:02.186Z,1015.61
2018-06-22T02:15:02.173Z,1015.63
2018-06-22T02:16:02.148Z,1015.57
2018-06-22T02:17:02.131Z,1015.57
2018-06-22T02:18:02.115Z,1015.58
2018-06-22T02:19:02.109Z,1015.60
2018-06-22T02:20:02.081Z,1015.56
2018-06-22T02:21:02.060Z,1015.59
2018-06-22T02:22:02.046Z,1015.62
2018-06-22T02:23:02.077Z,1015.60
2018-06-22T02:24:02.019Z,1015.53
2018-06-22T02:25:01.990Z,1015.51
2018-06-22T02:26:02.029Z,1015.51
2018-06-22T02:27:01.955Z,1015.45
2018-06-22T02:28:01.940Z,1015.45
2018-06-22T02:29:01.917Z,1015.47
2018-06-22T02:30:01.902Z,1015.46
2018-06-22T02:31:01.886Z,1015.37
2018-06-22T02:32:01.875Z,1015.39
2018-06-22T02:33:01.850Z,1015.45
2018-06-22T02:34:01.829Z,1015.46
2018-06-22T02:35:01.816Z,1015.50
2018-06-22T02:36:01.798Z,1015.45
2018-06-22T02:37:01.783Z,1015.49
2018-06-22T02:38:01.765Z,1015.44
2018-06-22T02:39:01.742Z,1015.44
2018-06-22T02:40:01.730Z,1015.44
2018-06-22T02:41:01.720Z,1015.46
2018-06-22T02:42:01.798Z,1015.44
2018-06-22T02:43:01.676Z,1015.38
2018-06-22T02:44:01.659Z,1015.34
2018-06-22T02:45:01.638Z,1015.38
2018-06-22T02:46:01.622Z,1015.41
2018-06-22T02:47:01.601Z,1015.44
2018-06-22T02:48:01.580Z,1015.41
2018-06-22T02:49:01.568Z,1015.38
2018-06-22T02:50:01.630Z,1015.41
2018-06-22T02:51:01.529Z,1015.40
2018-06-22T02:52:01.515Z,1015.41
2018-06-22T02:53:01.541Z,1015.45
2018-06-22T02:54:01.474Z,1015.38
2018-06-22T02:55:01.458Z,1015.41
2018-06-22T02:56:01.441Z,1015.40
2018-06-22T02:57:01.419Z,1015.43
2018-06-22T02:58:01.413Z,1015.42
2018-06-22T02:59:01.387Z,1015.39
2018-06-22T03:00:01.374Z,1015.42
2018-06-22T03:01:01.352Z,1015.38
2018-06-22T03:02:01.332Z,1015.32
2018-06-22T03:03:01.459Z,1015.39
2018-06-22T03:04:01.298Z,1015.33
2018-06-22T03:05:01.280Z,1015.35
2018-06-22T03:06:01.262Z,1015.37
2018-06-22T03:07:01.241Z,1015.37
2018-06-22T03:08:01.241Z,1015.36
2018-06-22T03:09:01.210Z,1015.26
2018-06-22T03:10:01.191Z,1015.25
2018-06-22T03:11:01.181Z,1015.29
2018-06-22T03:12:01.201Z,1015.28
2018-06-22T03:13:01.139Z,1015.23
2018-06-22T03:14:01.126Z,1015.25
2018-06-22T03:15:01.106Z,1015.23
2018-06-22T03:16:01.085Z,1015.27
2018-06-22T03:17:01.065Z,1015.22
2018-06-22T03:18:01.060Z,1015.28
2018-06-22T03:19:01.033Z,1015.26
2018-06-22T03:20:01.022Z,1015.25
2018-06-22T03:21:00.998Z,1015.20
2018-06-22T03:22:00.978Z,1015.20
2018-06-22T03:23:00.961Z,1015.22
2018-06-22T03:24:00.940Z,1015.24
2018-06-22T03:25:00.924Z,1015.23
2018-06-22T03:26:00.909Z,1015.22
2018-06-22T03:27:00.896Z,1015.30
2018-06-22T03:28:00.920Z,1015.26
2018-06-22T03:29:00.852Z,1015.23
2018-06-22T03:30:00.834Z,1015.26
2018-06-22T03:31:00.820Z,1015.21
2018-06-22T03:32:00.881Z,1015.26
2018-06-22T03:33:00.783Z,1015.25
2018-06-22T03:34:00.762Z,1015.25
2018-06-22T03:35:00.751Z,1015.31
2018-06-22T03:36:00.731Z,1015.15
2018-06-22T03:37:00.710Z,1015.20
2018-06-22T03:38:00.692Z,1015.20
2018-06-22T03:39:00.678Z,1015.17
2018-06-22T03:40:00.658Z,1015.15
2018-06-22T03:41:00.639Z,1015.15
2018-06-22T03:42:00.626Z,1015.16
2018-06-22T03:43:00.609Z,1015.09
2018-06-22T03:44:00.591Z,1015.20
2018-06-22T03:45:00.567Z,1015.14
2018-06-22T03:46:00.551Z,1015.12
2018-06-22T03:47:00.534Z,1015.12
2018-06-22T03:48:00.519Z,1015.14
2018-06-22T03:49:00.495Z,1015.14
2018-06-22T03:50:00.487Z,1015.06
2018-06-22T03:51:00.471Z,1015.08
2018-06-22T03:52:00.450Z,1015.02
2018-06-22T03:53:00.429Z,1015.02
2018-06-22T03:54:00.410Z,1014.97
2018-06-22T03:55:00.500Z,1014.99
2018-06-22T03:56:00.377Z,1014.94
2018-06-22T03:57:00.353Z,1014.95
2018-06-22T03:58:00.345Z,1014.99
2018-06-22T03:59:00.321Z,1014.95
2018-06-22T04:00:00.300Z,1014.93
2018-06-22T04:01:00.282Z,1014.94
2018-06-22T04:02:00.267Z,1014.97
2018-06-22T04:03:00.246Z,1014.95
2018-06-22T04:04:00.228Z,1014.95
2018-06-22T04:05:00.219Z,1015.00
2018-06-22T04:06:00.195Z,1014.97
2018-06-22T04:07:00.178Z,1014.88
2018-06-22T04:08:00.159Z,1014.88
2018-06-22T04:09:00.165Z,1014.81
2018-06-22T04:10:00.123Z,1014.82
2018-06-22T04:11:00.110Z,1014.81
2018-06-22T04:12:00.091Z,1014.85
2018-06-22T04:13:00.073Z,1014.81
2018-06-22T04:14:00.152Z,1014.84
2018-06-22T04:15:00.083Z,1014.88
2018-06-22T04:16:00.024Z,1014.84
2018-06-22T04:16:59.998Z,1014.80
2018-06-22T04:17:59.980Z,1014.84
2018-06-22T04:18:59.966Z,1014.81
2018-06-22T04:19:59.951Z,1014.87
2018-06-22T04:20:59.928Z,1014.91
2018-06-22T04:21:59.910Z,1014.85
2018-06-22T04:22:59.894Z,1014.81
2018-06-22T04:23:59.878Z,1014.76
2018-06-22T04:24:59.856Z,1014.80
2018-06-22T04:25:59.851Z,1014.78
2018-06-22T04:26:59.822Z,1014.74
2018-06-22T04:27:59.806Z,1014.76
2018-06-22T04:28:59.784Z,1014.80
2018-06-22T04:29:59.920Z,1014.86
2018-06-22T04:30:59.751Z,1014.86
2018-06-22T04:31:59.733Z,1014.84
2018-06-22T04:32:59.719Z,1014.87
2018-06-22T04:33:59.695Z,1014.89
2018-06-22T04:34:59.680Z,1014.88
2018-06-22T04:35:59.662Z,1014.93
2018-06-22T04:36:59.641Z,1014.92
2018-06-22T04:37:59.624Z,1014.89
2018-06-22T04:38:59.620Z,1014.95
2018-06-22T04:39:59.591Z,1014.94
2018-06-22T04:40:59.652Z,1014.99
2018-06-22T04:41:59.552Z,1015.01
2018-06-22T04:42:59.533Z,1015.09
2018-06-22T04:43:59.520Z,1015.09
2018-06-22T04:44:59.500Z,1015.13
2018-06-22T04:45:59.481Z,1015.10
2018-06-22T04:46:59.465Z,1015.10
2018-06-22T04:47:59.450Z,1015.08
2018-06-22T04:48:59.424Z,1015.15
2018-06-22T04:49:59.412Z,1015.19
2018-06-22T04:50:59.390Z,1015.21
2018-06-22T04:51:59.383Z,1015.22
2018-06-22T04:52:59.362Z,1015.21
2018-06-22T04:53:59.339Z,1015.28
2018-06-22T04:54:59.321Z,1015.25
2018-06-22T04:55:59.305Z,1015.23
2018-06-22T04:56:59.286Z,1015.27
2018-06-22T04:57:59.267Z,1015.24
2018-06-22T04:58:59.249Z,1015.27
2018-06-22T04:59:59.243Z,1015.29
2018-06-22T05:00:59.220Z,1015.37
2018-06-22T05:01:59.198Z,1015.29
2018-06-22T05:02:59.244Z,1015.28
2018-06-22T05:03:59.160Z,1015.30
2018-06-22T05:04:59.141Z,1015.32
2018-06-22T05:05:59.131Z,1015.34
2018-06-22T05:06:59.106Z,1015.32
2018-06-22T05:07:59.089Z,1015.29
2018-06-22T05:08:59.071Z,1015.31
2018-06-22T05:09:59.052Z,1015.32
2018-06-22T05:10:59.040Z,1015.32
2018-06-22T05:11:59.028Z,1015.35
2018-06-22T05:12:58.998Z,1015.38
2018-06-22T05:13:58.982Z,1015.32
2018-06-22T05:14:58.964Z,1015.38
2018-06-22T05:15:58.947Z,1015.37
2018-06-22T05:16:58.932Z,1015.40
2018-06-22T05:17:58.909Z,1015.39
2018-06-22T05:18:58.892Z,1015.34
2018-06-22T05:19:58.881Z,1015.35
2018-06-22T05:20:58.855Z,1015.36
2018-06-22T05:21:58.838Z,1015.38
2018-06-22T05:22:58.820Z,1015.36
2018-06-22T05:23:58.807Z,1015.32
2018-06-22T05:24:58.791Z,1015.31
2018-06-22T05:25:58.772Z,1015.29
2018-06-22T05:26:58.755Z,1015.37
2018-06-22T05:27:58.736Z,1015.42
2018-06-22T05:28:58.712Z,1015.38
2018-06-22T05:29:58.791Z,1015.41
2018-06-22T05:30:58.687Z,1015.47
2018-06-22T05:31:58.663Z,1015.45
2018-06-22T05:32:58.640Z,1015.56
2018-06-22T05:33:58.628Z,1015.53
2018-06-22T05:34:58.602Z,1015.49
2018-06-22T05:35:58.592Z,1015.58
2018-06-22T05:36:58.570Z,1015.58
2018-06-22T05:37:58.552Z,1015.55
2018-06-22T05:38:58.530Z,1015.60
2018-06-22T05:39:58.512Z,1015.56
2018-06-22T05:40:58.495Z,1015.60
2018-06-22T05:41:58.481Z,1015.72
2018-06-22T05:42:58.469Z,1015.69
2018-06-22T05:43:58.439Z,1015.57
2018-06-22T05:44:58.424Z,1015.67
2018-06-22T05:45:58.411Z,1015.65
2018-06-22T05:46:58.390Z,1015.61
2018-06-22T05:47:58.372Z,1015.61
2018-06-22T05:48:58.401Z,1015.64
2018-06-22T05:49:58.334Z,1015.61
2018-06-22T05:50:58.335Z,1015.70
2018-06-22T05:51:58.304Z,1015.69
2018-06-22T05:52:58.281Z,1015.68
2018-06-22T05:53:58.258Z,1015.73
2018-06-22T05:54:58.246Z,1015.76
2018-06-22T05:55:58.230Z,1015.72
2018-06-22T05:56:58.206Z,1015.73
2018-06-22T05:57:58.191Z,1015.71
2018-06-22T05:58:58.171Z,1015.68
2018-06-22T05:59:58.154Z,1015.67
2018-06-22T06:00:58.137Z,1015.73
2018-06-22T06:01:58.116Z,1015.71
2018-06-22T06:02:58.101Z,1015.70
2018-06-22T06:03:58.081Z,1015.68
2018-06-22T06:04:58.066Z,1015.79
2018-06-22T06:05:58.044Z,1015.70
2018-06-22T06:06:58.028Z,1015.72
2018-06-22T06:07:58.078Z,1015.74
2018-06-22T06:08:57.992Z,1015.72
2018-06-22T06:09:57.973Z,1015.75
2018-06-22T06:10:58.007Z,1015.78
2018-06-22T06:11:57.939Z,1015.77
2018-06-22T06:12:57.921Z,1015.81
2018-06-22T06:13:57.910Z,1015.83
2018-06-22T06:14:57.885Z,1015.81
2018-06-22T06:15:57.867Z,1015.89
2018-06-22T06:16:57.853Z,1015.86
2018-06-22T06:17:57.837Z,1015.86
2018-06-22T06:18:57.815Z,1015.89
2018-06-22T06:19:57.836Z,1015.93
2018-06-22T06:20:57.779Z,1015.94
2018-06-22T06:21:57.757Z,1015.96
2018-06-22T06:22:57.741Z,1015.94
2018-06-22T06:23:57.727Z,1015.97
2018-06-22T06:24:57.703Z,1015.94
2018-06-22T06:25:57.687Z,1015.96
2018-06-22T06:26:57.671Z,1015.96
2018-06-22T06:27:57.660Z,1015.93
2018-06-22T06:28:57.631Z,1015.95
2018-06-22T06:29:57.616Z,1015.94
2018-06-22T06:30:57.602Z,1015.95
2018-06-22T06:31:57.589Z,1015.96
2018-06-22T06:32:57.562Z,1016.01
2018-06-22T06:33:57.548Z,1015.98
2018-06-22T06:34:57.626Z,1015.96
2018-06-22T06:35:57.510Z,1016.03
2018-06-22T06:36:57.490Z,1015.99
2018-06-22T06:37:57.535Z,1016.00
2018-06-22T06:38:57.457Z,1015.97
2018-06-22T06:39:57.439Z,1015.97
2018-06-22T06:40:57.426Z,1015.98
2018-06-22T06:41:57.469Z,1015.98
2018-06-22T06:42:57.392Z,1016.09
2018-06-22T06:43:57.368Z,1016.05
2018-06-22T06:44:57.359Z,1016.11
2018-06-22T06:45:57.333Z,1016.18
2018-06-22T06:46:57.316Z,1016.17
2018-06-22T06:47:57.308Z,1016.19
2018-06-22T06:48:57.276Z,1016.23
2018-06-22T06:49:57.260Z,1016.23
2018-06-22T06:50:57.241Z,1016.15
2018-06-22T06:51:57.228Z,1016.19
2018-06-22T06:52:57.212Z,1016.17
2018-06-22T06:53:57.190Z,1016.17
2018-06-22T06:54:57.169Z,1016.19
2018-06-22T06:55:57.157Z,1016.19
2018-06-22T06:56:57.132Z,1016.22
2018-06-22T06:57:57.114Z,1016.13
2018-06-22T06:58:57.101Z,1016.19
2018-06-22T06:59:57.088Z,1016.12
2018-06-22T07:00:57.069Z,1016.24
2018-06-22T07:01:57.061Z,1016.25
2018-06-22T07:02:57.030Z,1016.27
2018-06-22T07:03:57.012Z,1016.24
2018-06-22T07:04:56.997Z,1016.28
2018-06-22T07:05:56.981Z,1016.32
2018-06-22T07:06:56.960Z,1016.32
2018-06-22T07:07:56.942Z,1016.36
2018-06-22T07:08:56.921Z,1016.35
2018-06-22T07:09:56.913Z,1016.38
2018-06-22T07:10:56.888Z,1016.37
2018-06-22T07:11:56.873Z,1016.34
2018-06-22T07:12:56.851Z,1016.45
2018-06-22T07:13:56.835Z,1016.37
2018-06-22T07:14:56.822Z,1016.46
2018-06-22T07:15:56.801Z,1016.42
2018-06-22T07:16:56.781Z,1016.44
2018-06-22T07:17:56.765Z,1016.45
2018-06-22T07:18:56.744Z,1016.41
2018-06-22T07:19:56.728Z,1016.41
2018-06-22T07:20:56.812Z,1016.42
2018-06-22T07:21:56.693Z,1016.40
2018-06-22T07:22:56.674Z,1016.39
2018-06-22T07:23:56.656Z,1016.48
2018-06-22T07:24:56.646Z,1016.47
2018-06-22T07:25:56.621Z,1016.53
2018-06-22T07:26:56.612Z,1016.66
2018-06-22T07:27:56.585Z,1016.45
2018-06-22T07:28:56.569Z,1016.48
2018-06-22T07:29:56.552Z,1016.59
2018-06-22T07:30:56.534Z,1016.44
2018-06-22T07:31:56.522Z,1016.42
2018-06-22T07:32:56.497Z,1016.51
2018-06-22T07:33:56.479Z,1016.53
2018-06-22T07:34:56.464Z,1016.32
2018-06-22T07:35:56.455Z,1016.38
2018-06-22T07:36:56.429Z,1016.38
2018-06-22T07:37:56.411Z,1016.37
2018-06-22T07:38:56.392Z,1016.37
2018-06-22T07:39:56.380Z,1016.45
2018-06-22T07:40:56.362Z,1016.67
2018-06-22T07:41:56.349Z,1016.63
2018-06-22T07:42:56.377Z,1016.64
2018-06-22T07:43:56.324Z,1016.65
2018-06-22T07:44:56.290Z,1016.66
2018-06-22T07:45:56.282Z,1016.75
2018-06-22T07:46:56.260Z,1016.62
2018-06-22T07:47:56.236Z,1016.70
2018-06-22T07:48:56.222Z,1016.65
2018-06-22T07:49:56.312Z,1016.51
2018-06-22T07:50:56.189Z,1016.54
2018-06-22T07:51:56.177Z,1016.61
2018-06-22T07:52:56.159Z,1016.60
2018-06-22T07:53:56.132Z,1016.71
2018-06-22T07:54:56.116Z,1016.67
2018-06-22T07:55:56.100Z,1016.59
2018-06-22T07:56:56.085Z,1016.59
2018-06-22T07:57:56.113Z,1016.58
2018-06-22T07:58:56.046Z,1016.56
2018-06-22T07:59:56.030Z,1016.61
2018-06-22T08:00:56.015Z,1016.60
2018-06-22T08:01:56.000Z,1016.73
2018-06-22T08:02:56.002Z,1016.58
2018-06-22T08:03:55.959Z,1016.77
2018-06-22T08:04:55.948Z,1016.83
2018-06-22T08:05:55.926Z,1016.79
2018-06-22T08:06:55.920Z,1016.83
2018-06-22T08:07:55.896Z,1016.64
2018-06-22T08:08:55.878Z,1016.64
2018-06-22T08:09:55.907Z,1016.77
2018-06-22T08:10:55.850Z,1016.67
2018-06-22T08:11:55.832Z,1016.74
2018-06-22T08:12:55.808Z,1016.56
2018-06-22T08:13:55.795Z,1016.57
2018-06-22T08:14:55.774Z,1016.55
2018-06-22T08:15:55.759Z,1016.65
2018-06-22T08:16:55.851Z,1016.66
2018-06-22T08:17:55.724Z,1016.64
2018-06-22T08:18:55.710Z,1016.68
2018-06-22T08:19:55.696Z,1016.59
2018-06-22T08:20:55.673Z,1016.65
2018-06-22T08:21:55.659Z,1016.61
2018-06-22T08:22:55.652Z,1016.55
2018-06-22T08:23:55.628Z,1016.69
2018-06-22T08:24:55.607Z,1016.71
2018-06-22T08:25:55.591Z,1016.66
2018-06-22T08:26:55.578Z,1016.69
2018-06-22T08:27:55.569Z,1016.73
2018-06-22T08:28:55.589Z,1016.66
2018-06-22T08:29:55.523Z,1016.76
2018-06-22T08:30:55.506Z,1016.71
2018-06-22T08:31:55.490Z,1016.70
2018-06-22T08:32:55.479Z,1016.76
2018-06-22T08:33:55.463Z,1016.75
2018-06-22T08:34:55.505Z,1016.72
2018-06-22T08:35:55.421Z,1016.87
2018-06-22T08:36:55.409Z,1016.71
2018-06-22T08:37:55.395Z,1016.87
2018-06-22T08:38:55.374Z,1016.76
2018-06-22T08:39:55.355Z,1016.81
2018-06-22T08:40:55.355Z,1016.83
2018-06-22T08:41:55.408Z,1016.81
2018-06-22T08:42:55.308Z,1016.85
2018-06-22T08:43:55.291Z,1016.89
2018-06-22T08:44:55.336Z,1016.90
2018-06-22T08:45:55.253Z,1016.88
2018-06-22T08:46:55.237Z,1016.95
2018-06-22T08:47:55.222Z,1017.00
2018-06-22T08:48:55.252Z,1016.96
2018-06-22T08:49:55.185Z,1016.94
2018-06-22T08:50:55.175Z,1016.96
2018-06-22T08:51:55.156Z,1017.01
2018-06-22T08:52:55.257Z,1017.09
2018-06-22T08:53:55.121Z,1017.08
2018-06-22T08:54:55.107Z,1016.95
2018-06-22T08:55:55.192Z,1017.00
2018-06-22T08:56:55.077Z,1016.97
2018-06-22T08:57:55.051Z,1016.91
2018-06-22T08:58:55.040Z,1016.97
2018-06-22T08:59:55.021Z,1017.08
2018-06-22T09:00:55.000Z,1017.04
2018-06-22T09:01:54.982Z,1017.15
2018-06-22T09:02:54.969Z,1017.12
2018-06-22T09:03:54.949Z,1016.96
2018-06-22T09:04:54.934Z,1016.94
2018-06-22T09:05:54.917Z,1017.03
2018-06-22T09:06:54.903Z,1017.10
2018-06-22T09:07:54.887Z,1017.13
2018-06-22T09:08:54.866Z,1017.07
2018-06-22T09:09:54.859Z,1017.21
2018-06-22T09:10:54.841Z,1017.09
2018-06-22T09:11:54.823Z,1017.19
2018-06-22T09:12:54.802Z,1017.19
2018-06-22T09:13:54.782Z,1017.15
2018-06-22T09:14:54.864Z,1017.11
2018-06-22T09:15:54.750Z,1017.19
2018-06-22T09:16:54.730Z,1017.23
2018-06-22T09:17:54.713Z,1017.24
2018-06-22T09:18:54.698Z,1017.14
2018-06-22T09:19:54.681Z,1017.25
2018-06-22T09:20:54.666Z,1017.22
2018-06-22T09:21:54.649Z,1017.24
2018-06-22T09:22:54.630Z,1017.22
2018-06-22T09:23:54.617Z,1017.42
2018-06-22T09:24:54.599Z,1017.27
2018-06-22T09:25:54.582Z,1017.23
2018-06-22T09:26:54.564Z,1017.29
2018-06-22T09:27:54.552Z,1017.24
2018-06-22T09:28:54.542Z,1017.25
2018-06-22T09:29:54.515Z,1017.31
2018-06-22T09:30:54.500Z,1017.35
2018-06-22T09:31:54.485Z,1017.26
2018-06-22T09:32:54.466Z,1017.31
2018-06-22T09:33:54.500Z,1017.29
2018-06-22T09:34:54.437Z,1017.40
2018-06-22T09:35:54.422Z,1017.51
2018-06-22T09:36:54.547Z,1017.47
2018-06-22T09:37:54.389Z,1017.42
2018-06-22T09:38:54.376Z,1017.46
2018-06-22T09:39:54.358Z,1017.52
2018-06-22T09:40:54.343Z,1017.51
2018-06-22T09:41:54.371Z,1017.54
2018-06-22T09:42:54.350Z,1017.48
2018-06-22T09:43:54.284Z,1017.59
2018-06-22T09:44:54.277Z,1017.55
2018-06-22T09:45:54.254Z,1017.54
2018-06-22T09:46:54.245Z,1017.54
2018-06-22T09:47:54.216Z,1017.58
2018-06-22T09:48:54.201Z,1017.59
2018-06-22T09:49:54.183Z,1017.52
2018-06-22T09:50:54.166Z,1017.50
2018-06-22T09:51:54.150Z,1017.53
2018-06-22T09:52:54.136Z,1017.50
2018-06-22T09:53:54.125Z,1017.57
2018-06-22T09:54:54.110Z,1017.72
2018-06-22T09:55:54.088Z,1017.49
2018-06-22T09:56:54.069Z,1017.58
2018-06-22T09:57:54.050Z,1017.54
2018-06-22T09:58:54.045Z,1017.71
2018-06-22T09:59:54.017Z,1017.66
2018-06-22T10:00:54.049Z,1017.71
2018-06-22T10:01:53.984Z,1017.57
2018-06-22T10:02:53.965Z,1017.64
2018-06-22T10:03:53.950Z,1017.67
2018-06-22T10:04:53.934Z,1017.67
2018-06-22T10:05:53.986Z,1017.62
2018-06-22T10:06:53.902Z,1017.62
2018-06-22T10:07:53.889Z,1017.66
2018-06-22T10:08:53.865Z,1017.64
2018-06-22T10:09:53.858Z,1017.60
2018-06-22T10:10:53.849Z,1017.49
2018-06-22T10:11:53.818Z,1017.48
2018-06-22T10:12:53.801Z,1017.45
2018-06-22T10:13:53.795Z,1017.47
2018-06-22T10:14:53.773Z,1017.54
2018-06-22T10:15:53.762Z,1017.65
2018-06-22T10:16:53.757Z,1017.49
2018-06-22T10:17:53.718Z,1017.47
2018-06-22T10:18:53.708Z,1017.41
2018-06-22T10:19:53.720Z,1017.46
2018-06-22T10:20:53.675Z,1017.39
2018-06-22T10:21:53.654Z,1017.40
2018-06-22T10:22:53.643Z,1017.49
2018-06-22T10:23:53.632Z,1017.45
2018-06-22T10:24:53.609Z,1017.45
2018-06-22T10:25:53.600Z,1017.45
2018-06-22T10:26:53.634Z,1017.44
2018-06-22T10:27:53.557Z,1017.64
2018-06-22T10:28:53.548Z,1017.71
2018-06-22T10:29:53.525Z,1017.76
2018-06-22T10:30:53.515Z,1017.73
2018-06-22T10:31:53.506Z,1017.75
2018-06-22T10:32:53.477Z,1017.68
2018-06-22T10:33:53.478Z,1017.78
2018-06-22T10:34:53.443Z,1017.68
2018-06-22T10:35:53.429Z,1017.70
2018-06-22T10:36:53.413Z,1017.68
2018-06-22T10:37:53.399Z,1017.65
2018-06-22T10:38:53.381Z,1017.64
2018-06-22T10:39:53.369Z,1017.68
2018-06-22T10:40:53.349Z,1017.67
2018-06-22T10:41:53.330Z,1017.68
2018-06-22T10:42:53.311Z,1017.67
2018-06-22T10:43:53.303Z,1017.62
2018-06-22T10:44:53.277Z,1017.66
2018-06-22T10:45:53.262Z,1017.67
2018-06-22T10:46:53.245Z,1017.60
2018-06-22T10:47:53.233Z,1017.61
2018-06-22T10:48:53.216Z,1017.73
2018-06-22T10:49:53.196Z,1017.74
2018-06-22T10:50:53.193Z,1017.67
2018-06-22T10:51:53.165Z,1017.65
2018-06-22T10:52:53.152Z,1017.65
2018-06-22T10:53:53.131Z,1017.61
2018-06-22T10:54:53.126Z,1017.67
2018-06-22T10:55:53.104Z,1017.66
2018-06-22T10:56:53.077Z,1017.60
2018-06-22T10:57:53.063Z,1017.73
2018-06-22T10:58:53.051Z,1017.70
2018-06-22T10:59:53.158Z,1017.75
2018-06-22T11:00:53.015Z,1017.71
2018-06-22T11:01:52.999Z,1017.68
2018-06-22T11:02:53.042Z,1017.67
2018-06-22T11:03:52.981Z,1017.66
2018-06-22T11:04:52.950Z,1017.59
2018-06-22T11:05:52.981Z,1017.66
2018-06-22T11:06:52.960Z,1017.73
2018-06-22T11:07:52.901Z,1017.72
2018-06-22T11:08:52.889Z,1017.87
2018-06-22T11:09:52.872Z,1017.55
2018-06-22T11:10:52.861Z,1017.61
2018-06-22T11:11:52.841Z,1017.81
2018-06-22T11:12:52.821Z,1017.61
2018-06-22T11:13:52.897Z,1017.64
2018-06-22T11:14:52.796Z,1017.77
2018-06-22T11:15:52.786Z,1017.63
2018-06-22T11:16:52.799Z,1017.52
2018-06-22T11:17:52.742Z,1017.56
2018-06-22T11:18:52.779Z,1017.65
2018-06-22T11:19:52.716Z,1017.62
2018-06-22T11:20:52.701Z,1017.80
2018-06-22T11:21:52.682Z,1017.61
2018-06-22T11:22:52.663Z,1017.66
2018-06-22T11:23:52.650Z,1017.63
2018-06-22T11:24:52.758Z,1017.66
2018-06-22T11:25:52.621Z,1017.83
2018-06-22T11:26:52.602Z,1017.70
2018-06-22T11:27:52.589Z,1017.89
2018-06-22T11:28:52.586Z,1017.87
2018-06-22T11:29:52.559Z,1017.93
2018-06-22T11:30:52.616Z,1017.66
2018-06-22T11:31:52.525Z,1017.65
2018-06-22T11:32:52.512Z,1017.84
2018-06-22T11:33:52.492Z,1017.92
2018-06-22T11:34:52.478Z,1017.73
2018-06-22T11:35:52.535Z,1017.71
2018-06-22T11:36:52.446Z,1017.67
2018-06-22T11:37:52.432Z,1017.80
2018-06-22T11:38:52.411Z,1017.67
2018-06-22T11:39:52.399Z,1017.63
2018-06-22T11:40:52.390Z,1017.61
2018-06-22T11:41:52.367Z,1017.69
2018-06-22T11:42:52.388Z,1017.74
2018-06-22T11:43:52.334Z,1017.78
2018-06-22T11:44:52.317Z,1017.87
2018-06-22T11:45:52.301Z,1017.93
2018-06-22T11:46:52.289Z,1017.90
2018-06-22T11:47:52.279Z,1017.97
2018-06-22T11:48:52.250Z,1017.92
2018-06-22T11:49:52.239Z,1017.89
2018-06-22T11:50:52.232Z,1017.86
2018-06-22T11:51:52.206Z,1017.93
2018-06-22T11:52:52.192Z,1017.96
2018-06-22T11:53:52.175Z,1017.94
2018-06-22T11:54:52.163Z,1018.00
2018-06-22T11:55:52.150Z,1017.93
2018-06-22T11:56:52.131Z,1017.89
2018-06-22T11:57:52.114Z,1017.99
2018-06-22T11:58:52.200Z,1017.98
2018-06-22T11:59:52.083Z,1018.21
2018-06-22T12:00:52.063Z,1018.21
2018-06-22T12:01:52.102Z,1018.14
2018-06-22T12:02:52.046Z,1018.16
2018-06-22T12:03:52.019Z,1018.10
2018-06-22T12:04:52.017Z,1018.01